createdAt,value
2023-05-10T00:01:43.262Z,82.43
2023-05-10T00:04:15.413Z,82.73
2023-05-10T00:06:48.734Z,83.03
2023-05-10T00:09:16.933Z,83.55
2023-05-10T00:11:46.353Z,83.58
2023-05-10T00:14:16.145Z,83.77
2023-05-10T00:16:46.770Z,83.87
2023-05-10T00:19:17.037Z,84.24
2023-05-10T00:21:46.169Z,84.47
2023-05-10T00:24:17.703Z,84.71
2023-05-10T00:26:46.347Z,85.05
2023-05-10T00:29:16.740Z,85.31
2023-05-10T00:31:44.969Z,85.40
2023-05-10T00:34:13.355Z,86.05
2023-05-10T00:36:44.982Z,86.37
2023-05-10T00:39:13.614Z,86.31
2023-05-10T00:41:48.516Z,86.35
2023-05-10T00:44:18.259Z,86.25
2023-05-10T00:46:50.550Z,86.01
2023-05-10T00:49:21.801Z,85.85
2023-05-10T00:51:52.559Z,85.83
2023-05-10T00:54:26.204Z,86.12
2023-05-10T00:56:55.108Z,86.13
2023-05-10T00:59:23.624Z,86.23
2023-05-10T01:01:55.057Z,86.35
2023-05-10T01:04:27.008Z,86.35
2023-05-10T01:06:57.380Z,86.47
2023-05-10T01:09:28.890Z,86.15
2023-05-10T01:12:04.778Z,86.41
2023-05-10T01:14:33.150Z,86.44
2023-05-10T01:17:04.883Z,86.68
2023-05-10T01:19:36.077Z,86.44
2023-05-10T01:22:16.269Z,86.28
2023-05-10T01:25:13.545Z,86.42
2023-05-10T01:27:58.229Z,86.43
2023-05-10T01:30:55.410Z,86.32
2023-05-10T01:33:31.357Z,86.10
2023-05-10T01:36:07.732Z,86.21
2023-05-10T01:38:51.261Z,85.80
2023-05-10T01:41:23.052Z,85.58
2023-05-10T01:43:58.808Z,85.54
2023-05-10T01:46:33.726Z,84.80
2023-05-10T01:49:07.046Z,84.36
2023-05-10T01:51:41.864Z,83.81
2023-05-10T01:54:17.039Z,84.11
2023-05-10T01:56:50.196Z,83.52
2023-05-10T01:59:21.432Z,83.70
2023-05-10T02:01:51.338Z,83.83
2023-05-10T02:04:27.844Z,84.25
2023-05-10T02:06:57.673Z,84.12
2023-05-10T02:09:29.425Z,84.20
2023-05-10T02:12:00.118Z,84.33
2023-05-10T02:14:32.473Z,84.40
2023-05-10T02:17:03.221Z,83.44
2023-05-10T02:19:36.091Z,83.76
2023-05-10T02:22:09.445Z,83.29
2023-05-10T02:24:44.215Z,83.01
2023-05-10T02:27:14.764Z,81.84
2023-05-10T02:29:44.119Z,81.01
2023-05-10T02:32:14.716Z,81.18
2023-05-10T02:34:53.148Z,80.55
2023-05-10T02:37:30.928Z,80.75
2023-05-10T02:40:01.080Z,80.28
2023-05-10T02:42:38.025Z,79.67
2023-05-10T02:45:13.072Z,79.26
2023-05-10T02:47:41.715Z,79.76
2023-05-10T02:50:14.164Z,79.94
2023-05-10T02:52:49.548Z,79.29
2023-05-10T02:55:27.790Z,78.65
2023-05-10T02:58:01.129Z,78.70
2023-05-10T03:00:31.607Z,78.74
2023-05-10T03:03:00.576Z,79.46
2023-05-10T03:05:30.777Z,80.55
2023-05-10T03:08:08.882Z,81.43
2023-05-10T03:10:53.004Z,82.65
2023-05-10T03:13:36.418Z,83.49
2023-05-10T03:16:12.104Z,83.90
2023-05-10T03:18:46.594Z,84.41
2023-05-10T03:21:21.123Z,84.92
2023-05-10T03:23:55.212Z,85.44
2023-05-10T03:26:28.436Z,85.72
2023-05-10T03:29:01.899Z,85.88
2023-05-10T03:31:33.896Z,86.02
2023-05-10T03:34:07.251Z,86.33
2023-05-10T03:36:38.244Z,86.38
2023-05-10T03:39:09.382Z,86.38
2023-05-10T03:41:42.424Z,85.92
2023-05-10T03:44:11.675Z,85.93
2023-05-10T03:46:40.313Z,85.88
2023-05-10T03:49:09.802Z,85.80
2023-05-10T03:51:39.962Z,85.88
2023-05-10T03:54:09.238Z,85.87
2023-05-10T03:56:37.737Z,85.90
2023-05-10T03:59:09.856Z,86.03
2023-05-10T04:01:41.189Z,85.76
2023-05-10T04:04:09.729Z,85.94
2023-05-10T04:06:41.856Z,85.87
2023-05-10T04:09:10.188Z,84.63
2023-05-10T04:11:40.001Z,84.66
2023-05-10T04:14:08.719Z,84.75
2023-05-10T04:16:37.283Z,84.92
2023-05-10T04:19:07.451Z,85.43
2023-05-10T04:21:35.840Z,85.68
2023-05-10T04:24:09.090Z,85.48
2023-05-10T04:26:37.389Z,86.04
2023-05-10T04:29:05.746Z,86.10
2023-05-10T04:31:34.391Z,86.03
2023-05-10T04:34:03.321Z,86.21
2023-05-10T04:36:34.660Z,85.76
2023-05-10T04:39:03.944Z,85.46
2023-05-10T04:41:36.773Z,85.32
2023-05-10T04:44:08.452Z,85.09
2023-05-10T04:46:43.853Z,85.02
2023-05-10T04:49:16.286Z,85.11
2023-05-10T04:51:51.235Z,85.27
2023-05-10T04:54:20.098Z,85.50
2023-05-10T04:56:49.684Z,85.14
2023-05-10T04:59:18.733Z,85.39
2023-05-10T05:01:49.700Z,85.28
2023-05-10T05:04:35.965Z,85.39
2023-05-10T05:07:05.316Z,85.60
2023-05-10T05:09:35.227Z,85.55
2023-05-10T05:12:08.674Z,85.40
2023-05-10T05:14:44.727Z,85.39
2023-05-10T05:17:15.770Z,85.18
2023-05-10T05:19:46.596Z,84.72
2023-05-10T05:22:15.916Z,83.31
2023-05-10T05:25:00.347Z,83.57
2023-05-10T05:27:32.835Z,83.06
2023-05-10T05:30:04.745Z,82.63
2023-05-10T05:32:34.197Z,82.40
2023-05-10T05:35:07.244Z,82.13
2023-05-10T05:37:36.329Z,82.03
2023-05-10T05:40:08.259Z,80.95
2023-05-10T05:42:40.368Z,81.12
2023-05-10T05:45:15.228Z,81.54
2023-05-10T05:47:56.033Z,80.42
2023-05-10T05:50:27.256Z,80.15
2023-05-10T05:52:57.299Z,80.53
2023-05-10T05:55:26.944Z,80.81
2023-05-10T05:58:00.373Z,79.88
2023-05-10T06:00:28.830Z,78.94
2023-05-10T06:02:57.977Z,79.97
2023-05-10T06:05:28.334Z,79.33
2023-05-10T06:07:57.766Z,79.13
2023-05-10T06:10:27.648Z,78.99
2023-05-10T06:13:03.745Z,79.00
2023-05-10T06:15:35.722Z,77.96
2023-05-10T06:18:06.159Z,79.45
2023-05-10T06:20:34.934Z,78.33
2023-05-10T06:23:03.112Z,78.04
2023-05-10T06:25:31.603Z,77.49
2023-05-10T06:28:07.318Z,76.78
2023-05-10T06:30:36.023Z,77.61
2023-05-10T06:33:05.278Z,76.86
2023-05-10T06:35:35.720Z,76.65
2023-05-10T06:38:06.611Z,76.43
2023-05-10T06:40:36.426Z,76.58
2023-05-10T06:43:06.847Z,76.41
2023-05-10T06:45:37.076Z,76.45
2023-05-10T06:48:08.112Z,75.26
2023-05-10T06:50:36.827Z,75.64
2023-05-10T06:53:25.685Z,73.60
2023-05-10T06:56:00.123Z,73.66
2023-05-10T06:58:31.378Z,73.24
2023-05-10T07:01:05.266Z,73.38
2023-05-10T07:03:34.355Z,73.09
2023-05-10T07:06:06.332Z,72.30
2023-05-10T07:08:34.887Z,72.05
2023-05-10T07:11:05.794Z,72.97
2023-05-10T07:13:39.581Z,73.07
2023-05-10T07:16:12.297Z,73.54
2023-05-10T07:18:41.363Z,74.24
2023-05-10T07:21:10.108Z,72.94
2023-05-10T07:23:38.655Z,72.17
2023-05-10T07:26:13.026Z,71.69
2023-05-10T07:28:45.455Z,72.08
2023-05-10T07:31:14.263Z,71.50
2023-05-10T07:33:48.655Z,71.24
2023-05-10T07:36:19.046Z,70.06
2023-05-10T07:38:48.972Z,69.96
2023-05-10T07:41:17.237Z,70.61
2023-05-10T07:43:47.667Z,69.38
2023-05-10T07:46:16.239Z,68.93
2023-05-10T07:48:45.972Z,68.80
2023-05-10T07:51:15.806Z,69.39
2023-05-10T07:53:45.116Z,69.85
2023-05-10T07:56:28.442Z,70.53
2023-05-10T07:59:01.510Z,69.58
2023-05-10T08:01:38.642Z,69.42
2023-05-10T08:04:08.510Z,69.47
2023-05-10T08:06:37.105Z,69.02
2023-05-10T08:09:07.011Z,68.49
2023-05-10T08:11:35.457Z,66.67
2023-05-10T08:14:11.817Z,67.64
2023-05-10T08:16:48.041Z,67.32
2023-05-10T08:19:20.177Z,68.45
2023-05-10T08:21:49.029Z,68.46
2023-05-10T08:24:21.011Z,68.53
2023-05-10T08:26:50.248Z,69.15
2023-05-10T08:29:21.998Z,68.67
2023-05-10T08:31:50.909Z,67.67
2023-05-10T08:34:19.712Z,67.87
2023-05-10T08:36:47.829Z,68.53
2023-05-10T08:39:23.376Z,68.24
2023-05-10T08:42:04.438Z,66.48
2023-05-10T08:44:38.339Z,66.33
2023-05-10T08:47:10.760Z,66.23
2023-05-10T08:49:40.114Z,64.55
2023-05-10T08:52:09.641Z,64.48
2023-05-10T08:54:39.024Z,65.46
2023-05-10T08:57:08.333Z,65.11
2023-05-10T08:59:40.553Z,64.50
2023-05-10T09:02:17.226Z,63.98
2023-05-10T09:04:47.994Z,63.42
2023-05-10T09:07:18.037Z,62.65
2023-05-10T09:09:47.523Z,62.92
2023-05-10T09:12:19.202Z,64.84
2023-05-10T09:14:49.313Z,63.86
2023-05-10T09:17:18.540Z,62.57
2023-05-10T09:19:50.336Z,63.59
2023-05-10T09:22:23.233Z,65.06
2023-05-10T09:25:05.977Z,62.75
2023-05-10T09:27:34.581Z,61.21
2023-05-10T09:30:05.328Z,62.07
2023-05-10T09:32:40.927Z,61.67
2023-05-10T09:35:15.154Z,62.71
2023-05-10T09:37:45.876Z,62.77
2023-05-10T09:40:19.274Z,60.50
2023-05-10T09:42:54.888Z,59.34
2023-05-10T09:45:27.128Z,58.09
2023-05-10T09:47:56.126Z,58.87
2023-05-10T09:50:29.716Z,61.63
2023-05-10T09:53:04.458Z,58.53
2023-05-10T09:55:42.220Z,60.06
2023-05-10T09:58:12.561Z,59.97
2023-05-10T10:00:44.209Z,60.56
2023-05-10T10:03:17.498Z,60.60
2023-05-10T10:05:53.727Z,58.73
2023-05-10T10:08:26.405Z,58.57
2023-05-10T10:11:02.403Z,55.55
2023-05-10T10:13:33.440Z,57.07
2023-05-10T10:16:05.655Z,55.96
2023-05-10T10:18:41.220Z,56.83
2023-05-10T10:21:13.383Z,57.94
2023-05-10T10:23:43.042Z,58.57
2023-05-10T10:26:23.068Z,57.57
2023-05-10T10:29:02.571Z,57.79
2023-05-10T10:31:41.495Z,54.08
2023-05-10T10:34:14.373Z,52.21
2023-05-10T10:36:48.084Z,52.79
2023-05-10T10:39:17.651Z,51.29
2023-05-10T10:41:57.471Z,54.04
2023-05-10T10:44:43.117Z,55.06
2023-05-10T10:47:29.219Z,55.15
2023-05-10T10:50:11.549Z,54.10
2023-05-10T10:52:41.610Z,52.75
2023-05-10T10:55:11.891Z,54.17
2023-05-10T10:57:48.953Z,54.82
2023-05-10T11:00:25.871Z,54.86
2023-05-10T11:03:01.012Z,55.24
2023-05-10T11:05:47.654Z,56.13
2023-05-10T11:08:18.590Z,56.34
2023-05-10T11:11:11.059Z,56.67
2023-05-10T11:13:44.206Z,55.74
2023-05-10T11:16:20.436Z,55.51
2023-05-10T11:19:07.921Z,55.44
2023-05-10T11:21:51.801Z,55.04
2023-05-10T11:24:26.650Z,55.67
2023-05-10T11:26:56.856Z,53.96
2023-05-10T11:29:31.235Z,52.05
2023-05-10T11:32:09.425Z,50.54
2023-05-10T11:34:44.202Z,50.84
2023-05-10T11:37:12.732Z,51.01
2023-05-10T11:39:41.753Z,52.33
2023-05-10T11:42:12.555Z,52.56
2023-05-10T11:44:43.355Z,52.60
2023-05-10T11:47:17.253Z,52.58
2023-05-10T11:49:47.902Z,53.80
2023-05-10T11:52:16.948Z,53.53
2023-05-10T11:54:54.272Z,53.42
2023-05-10T11:57:23.329Z,52.38
2023-05-10T11:59:57.311Z,51.63
2023-05-10T12:02:26.061Z,50.77
2023-05-10T12:05:03.303Z,50.87
2023-05-10T12:07:38.886Z,50.21
2023-05-10T12:10:19.267Z,52.50
2023-05-10T12:12:50.431Z,53.26
2023-05-10T12:15:21.655Z,54.68
2023-05-10T12:17:51.964Z,55.32
2023-05-10T12:20:33.042Z,53.53
2023-05-10T12:23:03.117Z,50.96
2023-05-10T12:25:38.382Z,51.68
2023-05-10T12:28:09.607Z,52.93
2023-05-10T12:30:41.681Z,52.49
2023-05-10T12:33:13.378Z,51.19
2023-05-10T12:35:52.953Z,50.95
2023-05-10T12:38:30.380Z,53.39
2023-05-10T12:41:00.579Z,53.20
2023-05-10T12:43:32.463Z,54.46
2023-05-10T12:46:01.506Z,53.64
2023-05-10T12:48:35.176Z,53.91
2023-05-10T12:51:10.837Z,53.90
2023-05-10T12:53:44.575Z,52.58
2023-05-10T12:56:14.058Z,54.36
2023-05-10T12:58:43.715Z,53.67
2023-05-10T13:01:15.170Z,53.32
2023-05-10T13:03:44.141Z,52.19
2023-05-10T13:06:16.234Z,51.87
2023-05-10T13:08:44.655Z,51.33
2023-05-10T13:11:17.927Z,51.41
2023-05-10T13:13:50.098Z,51.68
2023-05-10T13:16:21.449Z,51.33
2023-05-10T13:18:49.931Z,51.41
2023-05-10T13:21:23.783Z,51.87
2023-05-10T13:23:52.648Z,51.14
2023-05-10T13:26:22.723Z,52.77
2023-05-10T13:28:52.873Z,49.16
2023-05-10T13:31:23.891Z,50.80
2023-05-10T13:33:55.342Z,50.16
2023-05-10T13:36:25.258Z,50.06
2023-05-10T13:38:57.034Z,49.97
2023-05-10T13:41:28.827Z,48.87
2023-05-10T13:44:03.608Z,48.74
2023-05-10T13:46:33.406Z,49.72
2023-05-10T13:49:01.944Z,51.28
2023-05-10T13:51:32.768Z,51.16
2023-05-10T13:54:01.768Z,52.07
2023-05-10T13:56:30.245Z,50.00
2023-05-10T13:58:59.763Z,49.61
2023-05-10T14:01:28.378Z,50.50
2023-05-10T14:04:00.806Z,49.90
2023-05-10T14:06:32.182Z,50.18
2023-05-10T14:09:01.187Z,49.94
2023-05-10T14:11:29.848Z,49.09
2023-05-10T14:13:58.688Z,47.13
2023-05-10T14:16:28.758Z,48.24
2023-05-10T14:18:57.556Z,47.68
2023-05-10T14:21:25.971Z,46.43
2023-05-10T14:23:57.209Z,48.38
2023-05-10T14:26:34.158Z,47.66
2023-05-10T14:29:02.610Z,49.18
2023-05-10T14:31:31.462Z,49.36
2023-05-10T14:34:02.973Z,49.13
2023-05-10T14:36:34.075Z,49.16
2023-05-10T14:39:04.265Z,49.34
2023-05-10T14:41:34.971Z,49.56
2023-05-10T14:44:07.908Z,49.07
2023-05-10T14:46:38.051Z,47.51
2023-05-10T14:49:07.484Z,47.63
2023-05-10T14:51:38.187Z,49.01
2023-05-10T14:54:08.296Z,47.81
2023-05-10T14:56:46.767Z,47.41
2023-05-10T14:59:18.733Z,46.96
2023-05-10T15:01:48.261Z,45.63
2023-05-10T15:04:17.503Z,46.31
2023-05-10T15:06:51.166Z,46.15
2023-05-10T15:09:21.177Z,46.01
2023-05-10T15:11:51.318Z,46.21
2023-05-10T15:14:20.236Z,45.91
2023-05-10T15:16:49.434Z,47.52
2023-05-10T15:19:17.951Z,47.42
2023-05-10T15:21:46.615Z,47.91
2023-05-10T15:24:21.305Z,47.82
2023-05-10T15:26:50.777Z,48.49
2023-05-10T15:29:21.716Z,49.35
2023-05-10T15:31:56.869Z,48.77
2023-05-10T15:34:29.130Z,48.87
2023-05-10T15:37:00.284Z,49.89
2023-05-10T15:39:37.756Z,50.16
2023-05-10T15:42:09.596Z,49.93
2023-05-10T15:44:40.284Z,50.19
2023-05-10T15:47:09.007Z,50.94
2023-05-10T15:49:37.654Z,48.81
2023-05-10T15:52:07.299Z,49.32
2023-05-10T15:54:39.926Z,49.77
2023-05-10T15:57:12.410Z,50.08
2023-05-10T15:59:41.432Z,50.83
2023-05-10T16:02:11.036Z,50.42
2023-05-10T16:04:40.271Z,50.43
2023-05-10T16:07:11.186Z,50.32
2023-05-10T16:09:43.553Z,51.16
2023-05-10T16:12:12.226Z,51.51
2023-05-10T16:14:43.504Z,52.44
2023-05-10T16:18:24.557Z,52.90
2023-05-10T16:20:51.767Z,53.65
2023-05-10T16:23:24.729Z,53.36
2023-05-10T16:25:54.962Z,54.41
2023-05-10T16:28:23.670Z,54.73
2023-05-10T16:30:57.548Z,55.16
2023-05-10T16:33:26.069Z,55.58
2023-05-10T16:35:55.745Z,55.52
2023-05-10T16:38:24.791Z,56.29
2023-05-10T16:40:55.457Z,56.87
2023-05-10T16:43:29.847Z,56.80
2023-05-10T16:46:04.022Z,56.99
2023-05-10T16:48:33.155Z,57.62
2023-05-10T16:51:02.495Z,56.46
2023-05-10T16:53:31.158Z,57.59
2023-05-10T16:56:01.326Z,57.89
2023-05-10T16:58:30.620Z,58.22
2023-05-10T17:01:02.936Z,58.71
2023-05-10T17:03:34.235Z,59.15
2023-05-10T17:06:05.461Z,58.48
2023-05-10T17:08:34.205Z,58.60
2023-05-10T17:11:06.441Z,58.49
2023-05-10T17:13:44.140Z,58.72
2023-05-10T17:16:14.929Z,59.20
2023-05-10T17:18:46.646Z,58.83
2023-05-10T17:21:16.901Z,59.25
2023-05-10T17:23:48.591Z,60.45
2023-05-10T17:26:21.398Z,60.58
2023-05-10T17:28:51.212Z,60.32
2023-05-10T17:31:19.889Z,59.69
2023-05-10T17:33:52.248Z,59.79
2023-05-10T17:36:20.684Z,60.88
2023-05-10T17:38:49.634Z,61.54
2023-05-10T17:41:19.878Z,60.93
2023-05-10T17:43:49.588Z,61.01
2023-05-10T17:46:20.190Z,61.10
2023-05-10T17:48:51.076Z,60.79
2023-05-10T17:51:20.397Z,60.84
2023-05-10T17:53:51.970Z,61.77
2023-05-10T17:56:23.251Z,62.09
2023-05-10T17:58:52.921Z,61.21
2023-05-10T18:01:21.982Z,61.63
2023-05-10T18:03:51.852Z,62.06
2023-05-10T18:06:20.622Z,62.36
2023-05-10T18:08:52.161Z,62.31
2023-05-10T18:11:33.495Z,61.88
2023-05-10T18:14:01.851Z,60.93
2023-05-10T18:16:30.739Z,62.15
2023-05-10T18:18:59.557Z,62.30
2023-05-10T18:21:28.365Z,62.10
2023-05-10T18:23:57.361Z,62.46
2023-05-10T18:26:37.140Z,61.52
2023-05-10T18:29:07.453Z,61.58
2023-05-10T18:32:13.892Z,61.19
2023-05-10T18:34:42.951Z,62.92
2023-05-10T18:37:12.177Z,62.67
2023-05-10T18:39:41.530Z,63.29
2023-05-10T18:42:15.060Z,62.49
2023-05-10T18:44:44.045Z,61.92
2023-05-10T18:47:17.076Z,62.17
2023-05-10T18:49:46.615Z,62.55
2023-05-10T18:52:16.186Z,63.11
2023-05-10T18:54:46.004Z,63.69
2023-05-10T18:57:17.516Z,63.30
2023-05-10T18:59:52.291Z,63.09
2023-05-10T19:02:21.109Z,63.06
2023-05-10T19:04:50.941Z,63.22
2023-05-10T19:07:22.582Z,64.00
2023-05-10T19:09:53.176Z,63.76
2023-05-10T19:12:24.363Z,63.72
2023-05-10T19:14:55.302Z,64.24
2023-05-10T19:17:24.886Z,64.39
2023-05-10T19:19:56.655Z,65.07
2023-05-10T19:22:43.563Z,64.73
2023-05-10T19:25:18.541Z,65.33
2023-05-10T19:27:49.259Z,66.27
2023-05-10T19:30:18.693Z,66.66
2023-05-10T19:32:48.956Z,65.80
2023-05-10T19:35:19.736Z,65.82
2023-05-10T19:37:50.911Z,65.68
2023-05-10T19:40:19.915Z,65.78
2023-05-10T19:42:52.923Z,65.92
2023-05-10T19:45:24.049Z,66.11
2023-05-10T19:47:57.561Z,66.04
2023-05-10T19:50:26.793Z,66.76
2023-05-10T19:52:55.511Z,66.41
2023-05-10T19:55:29.193Z,66.54
2023-05-10T19:58:00.834Z,67.37
2023-05-10T20:00:32.389Z,67.14
2023-05-10T20:03:01.579Z,66.79
2023-05-10T20:05:31.146Z,66.30
2023-05-10T20:08:00.970Z,66.46
2023-05-10T20:10:31.183Z,66.56
2023-05-10T20:13:04.170Z,67.05
2023-05-10T20:15:34.160Z,66.43
2023-05-10T20:18:03.764Z,66.99
2023-05-10T20:20:32.159Z,66.71
2023-05-10T20:23:03.493Z,66.87
2023-05-10T20:25:32.291Z,66.41
2023-05-10T20:28:09.561Z,66.39
2023-05-10T20:30:44.187Z,67.18
2023-05-10T20:33:19.759Z,67.01
2023-05-10T20:35:54.593Z,67.34
2023-05-10T20:38:24.917Z,66.69
2023-05-10T20:40:59.612Z,66.98
2023-05-10T20:43:34.153Z,66.44
2023-05-10T20:46:06.608Z,66.87
2023-05-10T20:48:37.331Z,66.67
2023-05-10T20:51:09.448Z,66.87
2023-05-10T20:53:38.736Z,67.22
2023-05-10T20:56:08.977Z,66.60
2023-05-10T20:58:40.609Z,66.71
2023-05-10T21:01:10.709Z,67.77
2023-05-10T21:03:40.970Z,66.83
2023-05-10T21:06:09.391Z,66.86
2023-05-10T21:08:38.064Z,67.14
2023-05-10T21:11:08.075Z,67.25
2023-05-10T21:13:36.418Z,67.43
2023-05-10T21:16:06.710Z,67.81
2023-05-10T21:18:34.983Z,67.69
2023-05-10T21:21:06.214Z,67.15
2023-05-10T21:23:37.135Z,67.79
2023-05-10T21:26:07.611Z,67.36
2023-05-10T21:28:38.391Z,66.82
2023-05-10T21:31:11.035Z,67.05
2023-05-10T21:33:41.954Z,67.73
2023-05-10T21:36:19.056Z,67.26
2023-05-10T21:38:51.147Z,67.46
2023-05-10T21:41:21.900Z,67.53
2023-05-10T21:43:51.391Z,67.81
2023-05-10T21:46:21.885Z,67.56
2023-05-10T21:48:50.772Z,67.59
2023-05-10T21:51:19.308Z,67.36
2023-05-10T21:53:51.671Z,67.18
2023-05-10T21:56:23.265Z,68.19
2023-05-10T21:58:54.358Z,67.21
2023-05-10T22:01:27.849Z,68.36
2023-05-10T22:03:58.767Z,67.62
2023-05-10T22:06:27.103Z,67.83
2023-05-10T22:08:59.113Z,67.99
2023-05-10T22:11:30.477Z,68.33
2023-05-10T22:14:00.738Z,68.30
2023-05-10T22:16:31.084Z,68.25
2023-05-10T22:19:06.915Z,68.65
2023-05-10T22:21:37.081Z,68.63
2023-05-10T22:24:06.484Z,68.87
2023-05-10T22:26:40.507Z,68.89
2023-05-10T22:29:09.775Z,68.36
2023-05-10T22:31:43.354Z,67.79
2023-05-10T22:34:13.818Z,68.32
2023-05-10T22:36:42.622Z,67.86
2023-05-10T22:39:12.963Z,68.22
2023-05-10T22:41:41.467Z,68.45
2023-05-10T22:44:10.005Z,68.47
2023-05-10T22:46:43.292Z,68.13
2023-05-10T22:49:14.365Z,68.73
2023-05-10T22:51:46.661Z,68.17
2023-05-10T22:54:15.218Z,68.44
2023-05-10T22:56:44.899Z,68.83
2023-05-10T22:59:16.217Z,68.64
2023-05-10T23:01:47.543Z,68.61
2023-05-10T23:04:17.409Z,68.32
2023-05-10T23:06:46.782Z,68.19
2023-05-10T23:09:16.136Z,67.67
2023-05-10T23:11:44.627Z,67.82
2023-05-10T23:14:14.376Z,67.78
2023-05-10T23:16:43.162Z,67.35
2023-05-10T23:19:19.833Z,68.19
2023-05-10T23:21:49.497Z,67.36
2023-05-10T23:24:18.588Z,67.89
2023-05-10T23:26:47.424Z,67.76
2023-05-10T23:29:15.741Z,67.62
2023-05-10T23:31:46.278Z,67.75
2023-05-10T23:34:19.431Z,67.81
2023-05-10T23:36:50.737Z,68.28
2023-05-10T23:39:20.345Z,68.31
2023-05-10T23:41:50.016Z,68.36
2023-05-10T23:44:19.512Z,68.51
2023-05-10T23:46:49.093Z,68.23
2023-05-10T23:49:21.000Z,68.73
2023-05-10T23:51:52.501Z,68.16
2023-05-10T23:54:23.579Z,68.00
2023-05-10T23:56:52.155Z,67.95
2023-05-10T23:59:20.537Z,67.96
